Chadron, NE

2:41 PM MDT on July 25, 2016 (GMT -0600)
Chadron Municipal | | Change Station

Elev 3297 ft 42.84 °N, 103.10 °W | Updated 48 minutes ago

Clear
Clear
91 °F
Feels Like 89 °F
N
18
Wind Variable Wind from South

Today
High -- | Low -- °F
--% Chance of Precip.
Yesterday
High -- | Low -- °F
Precip. -- in
Pressure 29.95 in
Visibility 10.0 miles
Clouds Clear
Heat Index 89 °F
Dew Point 54 °F
Humidity 28%
Rainfall 0.00 in
Snow Depth Not available.
5:37 AM 8:20 PM
Waning Gibbous, 62% visible
METAR KCDR 251953Z AUTO 17016KT 10SM CLR 33/12 A3004 RMK AO2 SLP142 T03280122
Pressure 29.95 in
Visibility 10.0 miles
Clouds Clear
Heat Index 89 °F
Dew Point 54 °F
Humidity 28%
Rainfall 0.00 in
Snow Depth Not available.
5:37 AM 8:20 PM
Waning Gibbous, 62% visible
METAR KCDR 251953Z AUTO 17016KT 10SM CLR 33/12 A3004 RMK AO2 SLP142 T03280122

10-Day Weather Forecast

Almanac

Astronomy

Jul. 25, 2016 Rise Set
Actual Time
Civil Twilight
Nautical Twilight
Astronomical Twilight
Moon
Length of Visible Light
Length of Day
Tomorrow will be .
, % of the Moon is Illuminated

Today's Extremes

State Highs State Lows

Community

WunderPhotos

Upload Photos

1,927,417 photos uploaded!

WunderBlog® & News

Nearby

Air Quality

  Air Quality AQ Index Pollutant
Not available.

Snow Depth

Station Depth Elevation

Earthquake Activity

City Distance Mag. Time & Date
Minimum magnitude displayed is 2.5.

Coastal Water Temperatures

Place Temperature

Stations

Nearby Weather Stations

Station Location Temp. Windchill Dew Point Humidity Wind Precip. Elev Updated Type
                   

Watches & Warnings

There are currently no watches in effect.